Time;durP1;ratioP1;P1;durP2;ratioP2;P2;SDS_P1;SDS_P2;PMS_P1;PMS_P2;Temp;Humidity;BMP_temperature;BMP_pressure;BME280_temperature;BME280_humidity;BME280_pressure;Samples;Min_cycle;Max_cycle;Signal;HPM_P1;HPM_P2
2022/05/17 00:02:07;;;;;;;20.35;7.20;;;;;;;;;;5025029;28;20032;-88
2022/05/17 00:04:34;;;;;;;17.25;6.95;;;;;;;;;;5026456;28;20033;-87
2022/05/17 00:07:00;;;;;;;13.70;6.63;;;;;;;;;;5024062;28;20047;-86
2022/05/17 00:09:26;;;;;;;12.45;7.18;;;;;;;;;;5043214;28;20052;-89
2022/05/17 00:11:52;;;;;;;18.05;7.50;;;;;;;;;;5043527;28;20090;-86
2022/05/17 00:14:18;;;;;;;18.00;7.47;;;;;;;;;;5066786;28;20049;-86
2022/05/17 00:16:45;;;;;;;12.70;6.35;;;;;;;;;;5063850;28;20044;-85
2022/05/17 00:19:12;;;;;;;17.90;7.03;;;;;;;;;;5067191;28;20044;-85
2022/05/17 00:21:38;;;;;;;18.80;7.05;;;;;;;;;;5042354;28;20051;-87
2022/05/17 00:24:04;;;;;;;15.68;7.15;;;;;;;;;;5040370;28;20051;-87
2022/05/17 00:26:33;;;;;;;15.30;7.43;;;;;;;;;;5067075;28;20583;-88
2022/05/17 00:28:59;;;;;;;17.63;8.63;;;;;;;;;;5042995;28;20067;-86
2022/05/17 00:31:25;;;;;;;22.17;7.95;;;;;;;;;;5060410;28;20384;-84
2022/05/17 00:33:51;;;;;;;18.25;7.40;;;;;;;;;;5057981;28;20123;-88
2022/05/17 00:36:17;;;;;;;19.13;7.18;;;;;;;;;;5058075;28;20087;-87
2022/05/17 00:38:43;;;;;;;17.35;7.65;;;;;;;;;;5058948;28;20040;-88
2022/05/17 00:41:09;;;;;;;24.60;7.75;;;;;;;;;;5057855;28;20041;-86
2022/05/17 00:46:23;;;;;;;16.05;7.30;;;;;;;;;;5057149;28;20044;-85
2022/05/17 00:48:50;;;;;;;20.83;6.70;;;;;;;;;;5057136;28;20507;-89
2022/05/17 00:51:17;;;;;;;17.90;7.53;;;;;;;;;;5058194;28;20024;-87
2022/05/17 00:53:43;;;;;;;16.92;7.05;;;;;;;;;;5057187;28;20051;-87
2022/05/17 00:56:16;;;;;;;16.23;7.15;;;;;;;;;;5058001;28;20483;-90
2022/05/17 00:58:48;;;;;;;17.95;6.75;;;;;;;;;;5057135;28;20044;-88
2022/05/17 01:01:17;;;;;;;15.38;6.88;;;;;;;;;;5056772;28;20044;-85
2022/05/17 01:04:06;;;;;;;12.73;7.15;;;;;;;;;;5057266;28;20048;-87
2022/05/17 01:06:34;;;;;;;17.83;6.68;;;;;;;;;;5057299;28;20257;-89
2022/05/17 01:09:00;;;;;;;17.35;6.30;;;;;;;;;;5056122;28;20048;-86
2022/05/17 01:11:26;;;;;;;16.52;7.22;;;;;;;;;;5056162;28;20132;-87
2022/05/17 01:16:37;;;;;;;19.67;6.75;;;;;;;;;;5056233;28;20045;-87
2022/05/17 01:19:05;;;;;;;15.00;5.43;;;;;;;;;;5056783;28;20076;-83
2022/05/17 01:21:32;;;;;;;13.90;5.80;;;;;;;;;;5056469;28;20110;-85
2022/05/17 01:23:58;;;;;;;22.50;6.55;;;;;;;;;;5056116;28;20507;-87
2022/05/17 01:26:25;;;;;;;17.80;6.07;;;;;;;;;;5056171;28;20135;-87
2022/05/17 01:28:51;;;;;;;14.75;5.25;;;;;;;;;;5055921;28;20043;-86
2022/05/17 01:31:18;;;;;;;13.38;6.57;;;;;;;;;;5055674;28;20036;-87
2022/05/17 01:33:44;;;;;;;18.77;5.75;;;;;;;;;;5055925;28;20033;-84
2022/05/17 01:36:11;;;;;;;16.55;6.03;;;;;;;;;;5055493;28;20052;-89
2022/05/17 01:38:38;;;;;;;15.57;6.43;;;;;;;;;;5055650;28;20052;-84
2022/05/17 01:41:06;;;;;;;15.65;6.43;;;;;;;;;;5055740;28;20044;-85
2022/05/17 01:43:32;;;;;;;14.73;6.00;;;;;;;;;;5055134;28;20079;-86
2022/05/17 01:45:58;;;;;;;13.75;5.57;;;;;;;;;;5054998;28;20400;-83
2022/05/17 01:48:24;;;;;;;18.45;5.93;;;;;;;;;;5055424;28;20036;-83
2022/05/17 01:50:49;;;;;;;26.30;7.93;;;;;;;;;;5055023;28;20484;-82
2022/05/17 01:53:15;;;;;;;12.40;5.20;;;;;;;;;;5055160;28;20505;-81
2022/05/17 01:55:42;;;;;;;17.30;5.55;;;;;;;;;;5055554;28;20400;-83
2022/05/17 01:58:08;;;;;;;15.25;5.88;;;;;;;;;;5054827;28;20139;-83
2022/05/17 02:00:35;;;;;;;17.42;6.43;;;;;;;;;;5054756;28;20500;-84
2022/05/17 02:03:01;;;;;;;14.82;5.55;;;;;;;;;;5054887;28;20515;-85
2022/05/17 02:05:27;;;;;;;15.82;6.85;;;;;;;;;;5054497;28;20037;-86
2022/05/17 02:07:53;;;;;;;14.38;5.78;;;;;;;;;;5054284;28;20139;-86
2022/05/17 02:10:20;;;;;;;14.73;6.13;;;;;;;;;;5054830;28;20111;-81
2022/05/17 02:12:46;;;;;;;11.95;5.60;;;;;;;;;;5054503;28;20032;-83
2022/05/17 02:15:13;;;;;;;14.68;6.88;;;;;;;;;;5054384;28;20575;-88
2022/05/17 02:17:39;;;;;;;17.52;6.70;;;;;;;;;;5054730;28;20135;-86
2022/05/17 02:20:05;;;;;;;15.73;6.10;;;;;;;;;;5054546;28;20086;-85
2022/05/17 02:22:32;;;;;;;16.65;5.82;;;;;;;;;;5054213;28;20480;-87
2022/05/17 02:24:57;;;;;;;17.45;6.63;;;;;;;;;;5054122;28;20036;-87
2022/05/17 02:27:23;;;;;;;11.98;5.55;;;;;;;;;;5054542;28;20488;-85
2022/05/17 02:29:49;;;;;;;18.05;6.53;;;;;;;;;;5054237;28;20105;-86
2022/05/17 02:32:16;;;;;;;20.88;6.53;;;;;;;;;;5054121;28;20037;-85
2022/05/17 02:34:42;;;;;;;15.93;5.70;;;;;;;;;;5054692;28;20484;-82
2022/05/17 02:37:08;;;;;;;20.27;6.72;;;;;;;;;;5053732;28;20044;-83
2022/05/17 02:39:34;;;;;;;19.02;6.55;;;;;;;;;;5054077;28;20163;-84
2022/05/17 02:42:00;;;;;;;14.63;6.53;;;;;;;;;;5054425;28;20071;-89
2022/05/17 02:44:28;;;;;;;14.63;6.07;;;;;;;;;;5053992;28;20040;-87
2022/05/17 02:46:54;;;;;;;12.32;6.35;;;;;;;;;;5053852;28;20496;-86
2022/05/17 02:49:20;;;;;;;16.20;6.43;;;;;;;;;;5053996;28;20037;-86
2022/05/17 02:51:46;;;;;;;16.90;6.35;;;;;;;;;;5053981;28;20079;-84
2022/05/17 02:54:12;;;;;;;13.82;6.18;;;;;;;;;;5053847;28;20506;-87
2022/05/17 02:56:38;;;;;;;15.43;6.50;;;;;;;;;;5054553;28;20119;-84
2022/05/17 02:59:04;;;;;;;17.77;7.22;;;;;;;;;;5053705;28;20044;-84
2022/05/17 03:01:30;;;;;;;19.25;7.15;;;;;;;;;;5053772;28;20037;-83
2022/05/17 03:03:56;;;;;;;16.10;6.75;;;;;;;;;;5054037;28;20537;-84
2022/05/17 03:06:23;;;;;;;21.17;7.05;;;;;;;;;;5053645;28;20048;-87
2022/05/17 03:08:49;;;;;;;19.42;6.40;;;;;;;;;;5053554;28;20541;-84
2022/05/17 03:11:15;;;;;;;18.65;6.43;;;;;;;;;;5053728;28;20045;-85
2022/05/17 03:13:41;;;;;;;15.52;7.18;;;;;;;;;;5053852;28;20067;-84
2022/05/17 03:16:08;;;;;;;17.90;7.55;;;;;;;;;;5053993;28;20074;-88
2022/05/17 03:18:34;;;;;;;20.05;7.60;;;;;;;;;;5021018;28;20131;-82
2022/05/17 03:21:00;;;;;;;18.35;7.95;;;;;;;;;;5053700;28;20496;-84
2022/05/17 03:23:26;;;;;;;16.58;7.70;;;;;;;;;;5054687;28;20046;-86
2022/05/17 03:25:52;;;;;;;18.35;9.20;;;;;;;;;;5055063;28;20040;-82
2022/05/17 03:28:18;;;;;;;15.23;7.03;;;;;;;;;;5054268;28;20510;-84
2022/05/17 03:30:44;;;;;;;17.13;7.55;;;;;;;;;;5055159;28;20063;-82
2022/05/17 03:33:10;;;;;;;16.60;6.50;;;;;;;;;;5055000;28;20036;-85
2022/05/17 03:35:36;;;;;;;15.20;7.10;;;;;;;;;;5054272;28;20048;-85
2022/05/17 03:38:02;;;;;;;25.20;8.90;;;;;;;;;;5055100;28;20262;-89
2022/05/17 03:40:29;;;;;;;13.32;6.47;;;;;;;;;;5054950;28;20403;-83
2022/05/17 03:42:55;;;;;;;20.42;7.75;;;;;;;;;;5054810;28;20040;-84
2022/05/17 03:45:21;;;;;;;12.60;6.30;;;;;;;;;;5053885;28;20091;-86
2022/05/17 03:47:47;;;;;;;21.40;8.25;;;;;;;;;;5056136;28;20079;-85
2022/05/17 03:50:13;;;;;;;18.95;7.25;;;;;;;;;;5059004;28;20036;-86
2022/05/17 03:52:39;;;;;;;15.13;7.43;;;;;;;;;;5058359;28;20040;-85
2022/05/17 03:55:07;;;;;;;14.77;7.78;;;;;;;;;;5057928;28;20047;-89
2022/05/17 03:57:33;;;;;;;21.42;8.23;;;;;;;;;;5057557;28;20063;-84
2022/05/17 03:59:59;;;;;;;16.55;7.93;;;;;;;;;;5057530;28;20033;-84
2022/05/17 04:02:25;;;;;;;19.85;7.68;;;;;;;;;;5057360;28;20418;-87
2022/05/17 04:04:55;;;;;;;15.55;7.32;;;;;;;;;;5057166;28;20029;-85
2022/05/17 04:07:21;;;;;;;20.15;8.57;;;;;;;;;;5057196;28;20044;-88
2022/05/17 04:09:47;;;;;;;14.18;7.30;;;;;;;;;;5057302;28;20047;-85
2022/05/17 04:12:13;;;;;;;18.25;8.50;;;;;;;;;;5057100;28;20044;-82
2022/05/17 04:14:40;;;;;;;17.33;7.40;;;;;;;;;;5056914;28;20044;-85
2022/05/17 04:17:06;;;;;;;15.73;6.68;;;;;;;;;;5056974;28;20080;-83
2022/05/17 04:19:32;;;;;;;15.55;6.78;;;;;;;;;;5056908;28;20119;-85
2022/05/17 04:21:58;;;;;;;15.20;7.90;;;;;;;;;;5056552;28;20128;-86
2022/05/17 04:24:25;;;;;;;17.02;7.15;;;;;;;;;;5057183;28;20040;-87
2022/05/17 04:26:51;;;;;;;19.30;7.93;;;;;;;;;;5057002;28;20131;-86
2022/05/17 04:29:17;;;;;;;16.88;7.50;;;;;;;;;;5057531;28;20036;-84
2022/05/17 04:31:43;;;;;;;18.13;7.13;;;;;;;;;;5057007;28;20044;-83
2022/05/17 04:34:09;;;;;;;17.35;7.45;;;;;;;;;;5056939;28;20040;-83
2022/05/17 04:36:35;;;;;;;18.02;7.82;;;;;;;;;;5056420;28;20143;-86
2022/05/17 04:39:02;;;;;;;18.70;7.55;;;;;;;;;;5057066;28;20036;-84
2022/05/17 04:41:28;;;;;;;18.13;7.47;;;;;;;;;;5056632;28;20048;-83
2022/05/17 04:43:54;;;;;;;17.77;7.10;;;;;;;;;;5056722;28;20497;-84
2022/05/17 04:46:21;;;;;;;14.57;6.80;;;;;;;;;;5056407;28;20141;-85
2022/05/17 04:48:47;;;;;;;15.77;7.05;;;;;;;;;;5056746;28;20170;-87
2022/05/17 04:51:14;;;;;;;17.05;6.97;;;;;;;;;;5057363;28;20490;-90
2022/05/17 04:53:41;;;;;;;17.00;7.05;;;;;;;;;;5056649;28;20041;-85
2022/05/17 04:56:08;;;;;;;17.92;6.15;;;;;;;;;;5056919;28;20106;-83
2022/05/17 04:58:34;;;;;;;12.82;6.15;;;;;;;;;;5056195;28;20048;-81
2022/05/17 05:01:01;;;;;;;14.25;6.15;;;;;;;;;;5055922;28;20044;-83
2022/05/17 05:03:27;;;;;;;13.90;5.55;;;;;;;;;;5056421;28;20036;-88
2022/05/17 05:05:53;;;;;;;11.00;5.28;;;;;;;;;;5056207;28;20048;-87
2022/05/17 05:08:19;;;;;;;9.73;4.90;;;;;;;;;;5055688;28;20131;-84
2022/05/17 05:10:45;;;;;;;14.15;7.60;;;;;;;;;;5056201;28;20085;-87
2022/05/17 05:13:19;;;;;;;7.85;5.47;;;;;;;;;;5055909;28;20442;-87
2022/05/17 05:15:45;;;;;;;11.05;7.22;;;;;;;;;;5056581;28;20047;-89
2022/05/17 05:18:11;;;;;;;16.05;7.15;;;;;;;;;;5039419;28;20048;-87
2022/05/17 05:20:41;;;;;;;13.80;7.57;;;;;;;;;;5056703;28;20488;-86
2022/05/17 05:23:08;;;;;;;15.73;8.02;;;;;;;;;;5055960;28;20136;-88
2022/05/17 05:25:34;;;;;;;13.65;7.22;;;;;;;;;;5055755;28;20037;-84
2022/05/17 05:28:01;;;;;;;10.18;5.35;;;;;;;;;;5055816;28;20036;-84
2022/05/17 05:30:29;;;;;;;15.52;7.95;;;;;;;;;;5055381;28;20083;-83
2022/05/17 05:32:57;;;;;;;11.93;4.70;;;;;;;;;;5056028;28;20033;-88
2022/05/17 05:35:25;;;;;;;14.98;7.90;;;;;;;;;;5055945;28;20049;-86
2022/05/17 05:37:51;;;;;;;9.73;5.93;;;;;;;;;;5055638;28;20047;-84
2022/05/17 05:40:17;;;;;;;12.05;5.15;;;;;;;;;;5056309;28;20045;-87
2022/05/17 05:42:43;;;;;;;9.98;5.65;;;;;;;;;;5056707;28;20087;-89
2022/05/17 05:45:10;;;;;;;9.38;5.05;;;;;;;;;;5056675;28;20090;-85
2022/05/17 05:47:36;;;;;;;9.77;4.82;;;;;;;;;;5055386;28;20032;-84
2022/05/17 05:50:02;;;;;;;8.27;4.28;;;;;;;;;;5054946;28;20094;-85
2022/05/17 05:52:31;;;;;;;8.30;4.45;;;;;;;;;;5072190;28;20503;-84
2022/05/17 05:54:59;;;;;;;8.35;4.18;;;;;;;;;;5055556;28;20036;-86
2022/05/17 05:57:25;;;;;;;9.27;4.40;;;;;;;;;;5054981;28;20044;-88
2022/05/17 05:59:51;;;;;;;11.20;5.30;;;;;;;;;;5056029;28;20548;-84
2022/05/17 06:02:17;;;;;;;11.38;6.20;;;;;;;;;;5056919;28;20047;-86
2022/05/17 06:04:43;;;;;;;10.88;5.65;;;;;;;;;;5056136;28;20483;-88
2022/05/17 06:07:09;;;;;;;11.57;6.45;;;;;;;;;;5037976;28;20052;-87
2022/05/17 06:09:36;;;;;;;9.60;5.38;;;;;;;;;;5037875;28;20480;-85
2022/05/17 06:12:02;;;;;;;11.57;5.85;;;;;;;;;;5037467;28;20045;-90
2022/05/17 06:14:29;;;;;;;11.10;5.40;;;;;;;;;;5054722;28;20500;-86
2022/05/17 06:16:55;;;;;;;10.48;5.32;;;;;;;;;;5054490;28;20123;-83
2022/05/17 06:19:23;;;;;;;11.73;5.35;;;;;;;;;;5038026;28;20530;-92
2022/05/17 06:21:50;;;;;;;10.70;5.35;;;;;;;;;;5037446;28;20079;-87
2022/05/17 06:24:16;;;;;;;11.02;5.80;;;;;;;;;;5037906;28;20041;-86
2022/05/17 06:26:42;;;;;;;11.02;5.80;;;;;;;;;;5037720;28;20446;-91
2022/05/17 06:29:08;;;;;;;9.55;5.78;;;;;;;;;;5035188;28;20040;-86
2022/05/17 06:31:34;;;;;;;9.05;4.85;;;;;;;;;;5034247;28;20067;-86
2022/05/17 06:34:01;;;;;;;9.52;5.10;;;;;;;;;;5033615;28;20067;-84
2022/05/17 06:36:27;;;;;;;10.43;5.00;;;;;;;;;;5033834;28;20102;-82
2022/05/17 06:38:53;;;;;;;8.48;4.78;;;;;;;;;;5050571;28;20084;-85
2022/05/17 06:41:19;;;;;;;8.60;4.70;;;;;;;;;;5034151;28;20080;-85
2022/05/17 06:43:45;;;;;;;7.95;4.57;;;;;;;;;;5033525;28;20048;-87
2022/05/17 06:46:11;;;;;;;11.13;4.93;;;;;;;;;;5033167;28;20054;-85
2022/05/17 06:48:37;;;;;;;9.45;5.18;;;;;;;;;;5033977;28;20036;-88
2022/05/17 06:51:04;;;;;;;9.65;4.60;;;;;;;;;;5034357;28;20041;-87
2022/05/17 06:53:31;;;;;;;11.38;4.57;;;;;;;;;;5037407;28;20047;-88
2022/05/17 06:55:57;;;;;;;8.50;4.68;;;;;;;;;;5054162;28;20036;-88
2022/05/17 06:58:23;;;;;;;10.32;4.60;;;;;;;;;;5037600;28;20123;-84
2022/05/17 07:00:49;;;;;;;6.95;3.95;;;;;;;;;;5054125;28;20040;-86
2022/05/17 07:03:15;;;;;;;7.90;4.80;;;;;;;;;;5037656;28;20040;-89
2022/05/17 07:05:41;;;;;;;11.63;5.50;;;;;;;;;;5037418;28;20036;-85
2022/05/17 07:08:07;;;;;;;10.68;4.72;;;;;;;;;;5037163;28;20103;-87
2022/05/17 07:13:18;;;;;;;9.35;4.10;;;;;;;;;;5053669;28;20131;-86
2022/05/17 07:15:46;;;;;;;8.45;4.13;;;;;;;;;;5037492;28;20072;-88
2022/05/17 07:18:14;;;;;;;8.93;4.18;;;;;;;;;;5036784;28;20048;-86
2022/05/17 07:20:40;;;;;;;6.63;4.30;;;;;;;;;;5037312;28;20403;-88
2022/05/17 07:23:06;;;;;;;8.70;4.82;;;;;;;;;;5039811;28;20085;-86
2022/05/17 07:25:33;;;;;;;8.80;4.45;;;;;;;;;;5041148;28;20032;-91
2022/05/17 07:28:00;;;;;;;9.43;4.38;;;;;;;;;;5057867;28;20033;-88
2022/05/17 07:30:26;;;;;;;9.40;5.13;;;;;;;;;;5066483;28;20032;-87
2022/05/17 07:32:52;;;;;;;8.70;4.07;;;;;;;;;;5040424;28;20032;-86
2022/05/17 07:35:18;;;;;;;9.65;4.70;;;;;;;;;;5038735;28;20563;-89
2022/05/17 07:37:44;;;;;;;8.65;4.32;;;;;;;;;;5065092;28;20040;-89
2022/05/17 07:40:12;;;;;;;9.57;4.85;;;;;;;;;;5039371;28;20047;-88
2022/05/17 07:42:38;;;;;;;8.73;4.40;;;;;;;;;;5053148;28;20392;-89
2022/05/17 07:45:05;;;;;;;6.43;4.05;;;;;;;;;;5035708;28;20044;-81
2022/05/17 07:47:30;;;;;;;8.18;4.47;;;;;;;;;;5061364;28;20422;-86
2022/05/17 07:49:56;;;;;;;9.38;4.68;;;;;;;;;;5061788;28;20040;-88
2022/05/17 07:52:24;;;;;;;9.05;4.72;;;;;;;;;;5037474;28;20037;-86
2022/05/17 07:54:50;;;;;;;8.48;4.55;;;;;;;;;;5053514;28;20118;-89
2022/05/17 07:57:16;;;;;;;8.07;4.22;;;;;;;;;;5033912;28;20056;-89
2022/05/17 07:59:43;;;;;;;6.30;3.80;;;;;;;;;;5061517;28;20037;-87
2022/05/17 08:02:13;;;;;;;6.03;3.75;;;;;;;;;;5036986;28;20502;-86
2022/05/17 08:04:40;;;;;;;9.75;4.75;;;;;;;;;;5053850;28;20604;-89
2022/05/17 08:07:07;;;;;;;7.47;4.70;;;;;;;;;;5036431;28;20055;-83
2022/05/17 08:09:35;;;;;;;9.73;4.65;;;;;;;;;;5036563;28;20057;-87
2022/05/17 08:12:01;;;;;;;7.10;4.28;;;;;;;;;;5037149;28;20079;-87
2022/05/17 08:14:27;;;;;;;6.38;4.20;;;;;;;;;;5036389;28;20044;-85
2022/05/17 08:16:53;;;;;;;7.10;4.30;;;;;;;;;;5036388;28;20356;-83
2022/05/17 08:19:19;;;;;;;5.38;3.95;;;;;;;;;;5036975;28;20449;-89
2022/05/17 08:21:47;;;;;;;8.35;4.90;;;;;;;;;;5036615;28;20407;-89
2022/05/17 08:24:13;;;;;;;6.75;3.97;;;;;;;;;;5036432;28;20139;-87
2022/05/17 08:29:27;;;;;;;7.50;4.18;;;;;;;;;;5052560;28;20049;-86
2022/05/17 08:34:39;;;;;;;9.32;3.97;;;;;;;;;;5051828;28;20044;-85
2022/05/17 08:37:05;;;;;;;6.93;3.33;;;;;;;;;;5036741;28;20063;-89
2022/05/17 08:39:31;;;;;;;5.75;3.63;;;;;;;;;;5037070;28;20044;-86
2022/05/17 08:42:00;;;;;;;7.25;3.63;;;;;;;;;;5036113;28;20052;-84
2022/05/17 08:44:39;;;;;;;7.43;3.72;;;;;;;;;;5036106;28;20055;-88
2022/05/17 08:47:13;;;;;;;8.03;3.80;;;;;;;;;;5036452;28;20110;-90
2022/05/17 08:49:46;;;;;;;8.05;3.30;;;;;;;;;;5069515;28;20279;-92
2022/05/17 08:52:12;;;;;;;6.43;3.50;;;;;;;;;;5052816;28;20399;-87
2022/05/17 08:54:43;;;;;;;5.72;3.28;;;;;;;;;;5035739;28;20044;-83
2022/05/17 08:57:29;;;;;;;8.77;4.07;;;;;;;;;;5052126;28;20047;-82
2022/05/17 08:59:56;;;;;;;9.38;4.18;;;;;;;;;;5035782;28;20437;-83
2022/05/17 09:02:31;;;;;;;6.32;3.33;;;;;;;;;;5035896;28;20165;-85
2022/05/17 09:05:07;;;;;;;7.68;3.47;;;;;;;;;;5035660;28;20040;-87
2022/05/17 09:07:39;;;;;;;7.40;2.88;;;;;;;;;;5036056;28;20403;-90
2022/05/17 09:10:08;;;;;;;6.60;2.70;;;;;;;;;;5036803;28;20052;-90
2022/05/17 09:12:44;;;;;;;5.53;2.65;;;;;;;;;;5036570;28;20040;-85
2022/05/17 09:15:12;;;;;;;6.03;2.63;;;;;;;;;;5035812;28;20277;-87
2022/05/17 09:17:39;;;;;;;5.18;2.88;;;;;;;;;;5035931;28;20048;-88
2022/05/17 09:20:05;;;;;;;5.20;2.75;;;;;;;;;;5035486;28;20044;-86
2022/05/17 09:22:31;;;;;;;5.28;2.67;;;;;;;;;;5035094;28;20155;-88
2022/05/17 09:25:02;;;;;;;3.72;2.17;;;;;;;;;;5053627;28;20044;-83
2022/05/17 09:27:39;;;;;;;8.05;2.70;;;;;;;;;;5069125;28;20078;-85
2022/05/17 09:30:05;;;;;;;4.63;2.25;;;;;;;;;;5036016;28;20051;-86
2022/05/17 09:32:32;;;;;;;8.38;2.90;;;;;;;;;;5052500;28;20093;-84
2022/05/17 09:35:08;;;;;;;5.55;2.65;;;;;;;;;;5051433;28;20043;-88
2022/05/17 09:37:39;;;;;;;6.90;3.00;;;;;;;;;;5036393;28;20123;-84
2022/05/17 09:40:08;;;;;;;6.68;2.53;;;;;;;;;;5034499;28;20456;-85
2022/05/17 09:42:54;;;;;;;6.53;3.25;;;;;;;;;;5035118;28;20048;-85
2022/05/17 09:45:21;;;;;;;6.13;2.85;;;;;;;;;;5047447;28;20051;-82
2022/05/17 09:47:58;;;;;;;5.28;2.58;;;;;;;;;;5035060;28;20090;-86
2022/05/17 09:53:17;;;;;;;7.07;2.88;;;;;;;;;;5051823;28;20040;-87
2022/05/17 09:55:47;;;;;;;6.75;2.60;;;;;;;;;;5034777;28;20048;-84
2022/05/17 09:58:34;;;;;;;6.97;2.65;;;;;;;;;;5034646;28;20135;-90
2022/05/17 10:01:01;;;;;;;7.53;3.30;;;;;;;;;;5034921;28;20040;-80
2022/05/17 10:03:38;;;;;;;6.03;3.15;;;;;;;;;;5037243;28;20132;-86
2022/05/17 10:06:07;;;;;;;4.32;2.65;;;;;;;;;;5034406;28;20044;-86
2022/05/17 10:08:41;;;;;;;7.25;2.50;;;;;;;;;;5051079;28;20061;-83
2022/05/17 10:11:19;;;;;;;11.85;3.30;;;;;;;;;;5035743;28;20044;-90
2022/05/17 10:13:58;;;;;;;5.75;2.50;;;;;;;;;;5035356;28;20135;-85
2022/05/17 10:16:35;;;;;;;5.47;2.90;;;;;;;;;;5034108;28;20047;-85
2022/05/17 10:19:04;;;;;;;5.20;2.58;;;;;;;;;;5034918;28;20134;-80
2022/05/17 10:21:52;;;;;;;7.60;2.90;;;;;;;;;;5034015;28;20406;-85
2022/05/17 10:24:18;;;;;;;8.68;3.00;;;;;;;;;;5034534;28;20043;-83
2022/05/17 10:26:46;;;;;;;5.88;2.83;;;;;;;;;;5034405;28;20045;-84
2022/05/17 10:29:20;;;;;;;7.13;2.80;;;;;;;;;;5033748;28;20044;-83
2022/05/17 10:31:57;;;;;;;7.68;2.72;;;;;;;;;;5034846;28;20036;-89
2022/05/17 10:34:38;;;;;;;6.45;2.50;;;;;;;;;;5034334;28;20052;-83
2022/05/17 10:37:06;;;;;;;6.63;2.30;;;;;;;;;;5033831;28;20080;-81
2022/05/17 10:39:51;;;;;;;4.43;2.15;;;;;;;;;;5050197;28;20052;-87
2022/05/17 10:42:17;;;;;;;4.97;2.75;;;;;;;;;;5033798;28;20043;-86
2022/05/17 10:44:47;;;;;;;9.35;2.58;;;;;;;;;;5033866;28;20045;-83
2022/05/17 10:47:41;;;;;;;7.22;2.67;;;;;;;;;;5033923;28;20404;-84
2022/05/17 10:50:23;;;;;;;5.38;2.47;;;;;;;;;;5040374;28;20041;-82
2022/05/17 10:53:00;;;;;;;8.30;2.83;;;;;;;;;;5055734;28;20395;-85
2022/05/17 10:55:31;;;;;;;7.55;2.35;;;;;;;;;;5039265;28;20076;-86
2022/05/17 10:58:04;;;;;;;4.10;1.67;;;;;;;;;;5036628;28;20040;-83
2022/05/17 11:00:37;;;;;;;7.82;2.72;;;;;;;;;;5054020;28;20047;-86
2022/05/17 11:03:10;;;;;;;5.65;2.40;;;;;;;;;;5037538;28;20487;-83
2022/05/17 11:05:40;;;;;;;5.50;1.92;;;;;;;;;;5053755;28;20111;-88
2022/05/17 11:08:06;;;;;;;;;;;;;;;;;;5038570;28;20060;-83
2022/05/17 11:10:35;;;;;;;7.93;3.03;;;;;;;;;;5038115;28;20650;-87
2022/05/17 11:13:10;;;;;;;7.18;2.50;;;;;;;;;;5037116;28;20399;-84
2022/05/17 11:15:38;;;;;;;9.85;2.85;;;;;;;;;;5036992;28;20499;-84
2022/05/17 11:18:18;;;;;;;4.57;2.30;;;;;;;;;;5037253;28;20044;-88
2022/05/17 11:20:55;;;;;;;6.07;2.47;;;;;;;;;;5037397;28;20044;-87
2022/05/17 11:23:40;;;;;;;7.93;2.75;;;;;;;;;;5036715;28;20040;-83
2022/05/17 11:26:06;;;;;;;9.35;2.88;;;;;;;;;;5037274;28;20509;-87
2022/05/17 11:28:52;;;;;;;4.10;2.08;;;;;;;;;;5037602;28;20037;-87
2022/05/17 11:31:20;;;;;;;6.72;2.33;;;;;;;;;;5030193;28;20048;-86
2022/05/17 11:33:47;;;;;;;5.15;2.00;;;;;;;;;;5054459;28;20041;-83
2022/05/17 11:36:33;;;;;;;3.63;1.95;;;;;;;;;;5037859;28;20044;-91
2022/05/17 11:39:02;;;;;;;6.05;2.45;;;;;;;;;;5037089;28;20098;-87
2022/05/17 11:41:35;;;;;;;5.32;2.20;;;;;;;;;;5037144;28;20043;-91
2022/05/17 11:44:21;;;;;;;5.82;2.30;;;;;;;;;;5037023;28;20044;-88
2022/05/17 11:46:52;;;;;;;7.70;2.33;;;;;;;;;;5036722;28;20104;-88
2022/05/17 11:49:18;;;;;;;5.75;2.08;;;;;;;;;;5036718;28;20040;-85
2022/05/17 11:51:59;;;;;;;5.78;1.98;;;;;;;;;;5036533;28;20423;-84
2022/05/17 11:54:45;;;;;;;6.05;2.38;;;;;;;;;;5053118;28;20036;-84
2022/05/17 11:57:11;;;;;;;9.93;3.65;;;;;;;;;;5053037;28;20067;-84
2022/05/17 11:59:39;;;;;;;6.18;2.13;;;;;;;;;;5036346;28;20041;-83
2022/05/17 12:02:09;;;;;;;7.30;2.55;;;;;;;;;;5036758;28;20044;-87
2022/05/17 12:04:37;;;;;;;6.97;2.22;;;;;;;;;;5053033;28;20076;-85
2022/05/17 12:07:25;;;;;;;6.97;1.77;;;;;;;;;;5036844;28;20036;-87
2022/05/17 12:09:52;;;;;;;5.30;1.80;;;;;;;;;;5073594;28;20045;-85
2022/05/17 12:12:28;;;;;;;5.63;2.50;;;;;;;;;;5039844;28;20043;-89
2022/05/17 12:15:13;;;;;;;5.43;1.98;;;;;;;;;;5040389;28;20127;-84
2022/05/17 12:17:39;;;;;;;4.60;1.60;;;;;;;;;;5040035;28;20106;-86
2022/05/17 12:20:25;;;;;;;5.47;1.70;;;;;;;;;;5056825;28;20048;-88
2022/05/17 12:23:00;;;;;;;4.93;1.80;;;;;;;;;;5040966;28;20051;-82
2022/05/17 12:25:53;;;;;;;5.05;1.85;;;;;;;;;;5040959;28;20040;-84
2022/05/17 12:28:22;;;;;;;4.18;1.70;;;;;;;;;;5040457;28;20036;-81
2022/05/17 12:30:59;;;;;;;4.03;1.65;;;;;;;;;;5039670;28;20055;-83
2022/05/17 12:33:25;;;;;;;9.35;1.80;;;;;;;;;;5039574;28;20036;-83
2022/05/17 12:35:53;;;;;;;5.40;1.70;;;;;;;;;;5039569;28;20380;-86
2022/05/17 12:44:06;;;;;;;4.38;1.58;;;;;;;;;;5056127;28;20492;-85
2022/05/17 12:46:36;;;;;;;4.18;1.45;;;;;;;;;;5055935;28;20407;-85
2022/05/17 12:49:12;;;;;;;3.42;1.90;;;;;;;;;;5039105;28;20454;-87
2022/05/17 12:51:38;;;;;;;4.57;1.70;;;;;;;;;;5039381;28;20082;-83
2022/05/17 12:54:10;;;;;;;3.15;1.60;;;;;;;;;;5039417;28;20048;-86
2022/05/17 12:56:37;;;;;;;5.53;1.90;;;;;;;;;;5039154;28;20037;-86
2022/05/17 12:59:08;;;;;;;3.35;1.80;;;;;;;;;;5039521;28;20037;-85
2022/05/17 13:01:36;;;;;;;5.78;2.10;;;;;;;;;;5055664;28;20063;-81
2022/05/17 13:04:13;;;;;;;5.95;2.08;;;;;;;;;;5037769;28;20131;-83
2022/05/17 13:06:50;;;;;;;5.05;1.65;;;;;;;;;;5038787;28;20043;-84
2022/05/17 13:09:16;;;;;;;4.00;1.95;;;;;;;;;;5038715;28;20052;-86
2022/05/17 13:11:45;;;;;;;4.07;1.60;;;;;;;;;;5039247;28;20048;-87
2022/05/17 13:14:21;;;;;;;4.72;1.52;;;;;;;;;;5038644;28;20401;-86
2022/05/17 13:16:48;;;;;;;4.05;1.80;;;;;;;;;;5039586;28;20052;-88
2022/05/17 13:19:15;;;;;;;4.40;1.58;;;;;;;;;;5038626;28;20043;-85
2022/05/17 13:21:48;;;;;;;4.45;2.05;;;;;;;;;;5038709;28;20044;-85
2022/05/17 13:24:32;;;;;;;3.72;1.60;;;;;;;;;;5039120;28;20036;-85
2022/05/17 13:27:00;;;;;;;4.65;1.70;;;;;;;;;;5038660;28;20040;-84
2022/05/17 13:29:27;;;;;;;4.35;1.98;;;;;;;;;;5055657;28;20037;-82
2022/05/17 13:32:04;;;;;;;4.13;1.88;;;;;;;;;;5038766;28;20082;-84
2022/05/17 13:34:32;;;;;;;3.63;1.67;;;;;;;;;;5038889;28;20110;-83
2022/05/17 13:37:03;;;;;;;5.85;2.00;;;;;;;;;;5038478;28;20090;-84
2022/05/17 13:39:30;;;;;;;4.32;1.52;;;;;;;;;;5038290;28;20446;-85
2022/05/17 13:41:57;;;;;;;5.15;1.60;;;;;;;;;;5055357;28;20099;-85
2022/05/17 13:44:27;;;;;;;5.70;1.83;;;;;;;;;;5071782;28;20051;-85
2022/05/17 13:46:53;;;;;;;3.13;1.92;;;;;;;;;;5054760;28;20040;-83
2022/05/17 13:49:19;;;;;;;4.53;1.88;;;;;;;;;;5038871;28;20033;-87
2022/05/17 13:51:48;;;;;;;5.43;2.10;;;;;;;;;;5054668;28;20059;-86
2022/05/17 13:54:14;;;;;;;5.50;1.73;;;;;;;;;;5038028;28;20043;-85
2022/05/17 13:56:43;;;;;;;3.58;1.60;;;;;;;;;;5037897;28;20040;-85
2022/05/17 13:59:11;;;;;;;4.57;1.77;;;;;;;;;;5038222;28;20045;-85
2022/05/17 14:01:39;;;;;;;4.88;1.95;;;;;;;;;;5037938;28;20132;-83
2022/05/17 14:04:08;;;;;;;6.20;1.75;;;;;;;;;;5037766;28;20479;-87
2022/05/17 14:06:53;;;;;;;4.82;2.00;;;;;;;;;;5037621;28;20044;-85
2022/05/17 14:12:17;;;;;;;5.53;1.98;;;;;;;;;;5053748;28;20049;-83
2022/05/17 14:14:44;;;;;;;4.97;1.98;;;;;;;;;;5038007;28;20040;-84
2022/05/17 14:17:26;;;;;;;4.05;1.60;;;;;;;;;;5070795;28;20365;-84
2022/05/17 14:19:59;;;;;;;4.95;1.80;;;;;;;;;;5054940;28;20058;-82
2022/05/17 14:22:29;;;;;;;6.57;2.17;;;;;;;;;;5071900;28;20558;-84
2022/05/17 14:24:56;;;;;;;3.67;2.10;;;;;;;;;;5057682;28;20445;-88
2022/05/17 14:27:22;;;;;;;8.18;1.95;;;;;;;;;;5057026;28;20044;-82
2022/05/17 14:29:49;;;;;;;5.13;2.20;;;;;;;;;;5057394;28;20040;-88
2022/05/17 14:32:15;;;;;;;4.70;2.00;;;;;;;;;;5074919;28;20506;-83
2022/05/17 14:34:42;;;;;;;8.48;1.98;;;;;;;;;;5075371;28;20391;-85
2022/05/17 14:37:09;;;;;;;5.10;1.75;;;;;;;;;;5058722;28;20048;-84
2022/05/17 14:39:35;;;;;;;5.93;1.88;;;;;;;;;;5058589;28;20036;-85
2022/05/17 14:42:01;;;;;;;8.20;2.28;;;;;;;;;;5058313;28;20040;-86
2022/05/17 14:44:28;;;;;;;4.35;1.73;;;;;;;;;;5075119;28;20044;-85
2022/05/17 14:46:59;;;;;;;5.82;2.00;;;;;;;;;;5075021;28;20522;-84
2022/05/17 14:49:28;;;;;;;6.97;2.40;;;;;;;;;;5058593;28;20070;-85
2022/05/17 14:51:55;;;;;;;6.57;2.35;;;;;;;;;;5058402;28;20123;-85
2022/05/17 14:54:21;;;;;;;7.13;2.38;;;;;;;;;;5058509;28;20044;-87
2022/05/17 14:56:47;;;;;;;4.47;2.05;;;;;;;;;;5058591;28;20628;-86
2022/05/17 14:59:13;;;;;;;9.07;4.10;;;;;;;;;;5057417;28;20052;-83
2022/05/17 15:01:42;;;;;;;7.50;2.88;;;;;;;;;;5073672;28;20048;-82
2022/05/17 15:04:08;;;;;;;5.47;2.17;;;;;;;;;;5057045;28;20067;-84
2022/05/17 15:06:48;;;;;;;10.07;2.67;;;;;;;;;;5056292;28;20079;-85
2022/05/17 15:09:16;;;;;;;8.60;2.58;;;;;;;;;;5056541;28;20134;-84
2022/05/17 15:11:41;;;;;;;8.52;2.58;;;;;;;;;;5056925;28;20044;-85
2022/05/17 15:14:07;;;;;;;7.88;2.50;;;;;;;;;;5072453;28;20479;-84